sensor_id;sensor_type;location;lat;lon;timestamp;P1;durP1;ratioP1;P2;durP2;ratioP2
31594;SDS011;18200;48.726;8.892;2023-11-19T00:00:53;9.35;;;3.90;;
31594;SDS011;18200;48.726;8.892;2023-11-19T00:04:54;4.00;;;2.17;;
31594;SDS011;18200;48.726;8.892;2023-11-19T00:08:54;2.80;;;1.38;;
31594;SDS011;18200;48.726;8.892;2023-11-19T00:12:55;2.55;;;1.00;;
31594;SDS011;18200;48.726;8.892;2023-11-19T00:16:57;1.40;;;0.90;;
31594;SDS011;18200;48.726;8.892;2023-11-19T00:20:57;0.73;;;0.70;;
31594;SDS011;18200;48.726;8.892;2023-11-19T00:24:57;1.67;;;0.98;;
31594;SDS011;18200;48.726;8.892;2023-11-19T00:28:58;0.73;;;0.57;;
31594;SDS011;18200;48.726;8.892;2023-11-19T00:32:59;1.38;;;0.55;;
31594;SDS011;18200;48.726;8.892;2023-11-19T00:37:00;2.17;;;0.90;;
31594;SDS011;18200;48.726;8.892;2023-11-19T00:41:00;0.50;;;0.50;;
31594;SDS011;18200;48.726;8.892;2023-11-19T00:45:02;1.10;;;0.70;;
31594;SDS011;18200;48.726;8.892;2023-11-19T00:49:03;0.65;;;0.45;;
31594;SDS011;18200;48.726;8.892;2023-11-19T00:53:03;0.50;;;0.50;;
31594;SDS011;18200;48.726;8.892;2023-11-19T00:57:04;1.10;;;0.40;;
31594;SDS011;18200;48.726;8.892;2023-11-19T01:01:05;0.82;;;0.50;;
31594;SDS011;18200;48.726;8.892;2023-11-19T01:05:08;0.30;;;0.30;;
31594;SDS011;18200;48.726;8.892;2023-11-19T01:09:08;0.47;;;0.35;;
31594;SDS011;18200;48.726;8.892;2023-11-19T01:13:09;1.63;;;0.20;;
31594;SDS011;18200;48.726;8.892;2023-11-19T01:17:10;0.35;;;0.30;;
31594;SDS011;18200;48.726;8.892;2023-11-19T01:21:11;1.45;;;0.30;;
31594;SDS011;18200;48.726;8.892;2023-11-19T01:25:12;0.50;;;0.30;;
31594;SDS011;18200;48.726;8.892;2023-11-19T01:29:12;0.30;;;0.30;;
31594;SDS011;18200;48.726;8.892;2023-11-19T01:33:16;0.60;;;0.40;;
31594;SDS011;18200;48.726;8.892;2023-11-19T01:37:17;0.20;;;0.20;;
31594;SDS011;18200;48.726;8.892;2023-11-19T01:41:17;0.30;;;0.20;;
31594;SDS011;18200;48.726;8.892;2023-11-19T01:45:27;0.15;;;0.13;;
31594;SDS011;18200;48.726;8.892;2023-11-19T01:49:29;0.20;;;0.20;;
31594;SDS011;18200;48.726;8.892;2023-11-19T01:53:31;1.85;;;0.30;;
31594;SDS011;18200;48.726;8.892;2023-11-19T01:57:34;0.32;;;0.22;;
31594;SDS011;18200;48.726;8.892;2023-11-19T02:01:37;0.25;;;0.20;;
31594;SDS011;18200;48.726;8.892;2023-11-19T02:05:39;0.47;;;0.20;;
31594;SDS011;18200;48.726;8.892;2023-11-19T02:09:43;0.85;;;0.20;;
31594;SDS011;18200;48.726;8.892;2023-11-19T02:13:44;0.45;;;0.30;;
31594;SDS011;18200;48.726;8.892;2023-11-19T02:17:44;0.77;;;0.28;;
31594;SDS011;18200;48.726;8.892;2023-11-19T02:21:45;0.68;;;0.10;;
31594;SDS011;18200;48.726;8.892;2023-11-19T02:30:17;0.30;;;0.20;;
31594;SDS011;18200;48.726;8.892;2023-11-19T02:34:18;0.30;;;0.10;;
31594;SDS011;18200;48.726;8.892;2023-11-19T02:38:18;0.88;;;0.20;;
31594;SDS011;18200;48.726;8.892;2023-11-19T02:42:18;0.20;;;0.15;;
31594;SDS011;18200;48.726;8.892;2023-11-19T02:46:19;0.32;;;0.15;;
31594;SDS011;18200;48.726;8.892;2023-11-19T02:50:19;0.10;;;0.10;;
31594;SDS011;18200;48.726;8.892;2023-11-19T02:54:25;0.10;;;0.10;;
31594;SDS011;18200;48.726;8.892;2023-11-19T02:58:27;2.63;;;0.30;;
31594;SDS011;18200;48.726;8.892;2023-11-19T03:02:28;0.88;;;0.10;;
31594;SDS011;18200;48.726;8.892;2023-11-19T03:06:33;0.90;;;0.10;;
31594;SDS011;18200;48.726;8.892;2023-11-19T03:10:34;0.05;;;0.03;;
31594;SDS011;18200;48.726;8.892;2023-11-19T03:14:34;0.10;;;0.10;;
31594;SDS011;18200;48.726;8.892;2023-11-19T03:18:35;0.73;;;0.32;;
31594;SDS011;18200;48.726;8.892;2023-11-19T03:22:38;0.28;;;0.10;;
31594;SDS011;18200;48.726;8.892;2023-11-19T03:26:39;0.10;;;0.10;;
31594;SDS011;18200;48.726;8.892;2023-11-19T03:30:39;4.15;;;0.13;;
31594;SDS011;18200;48.726;8.892;2023-11-19T03:34:39;1.30;;;0.13;;
31594;SDS011;18200;48.726;8.892;2023-11-19T03:38:40;0.10;;;0.03;;
31594;SDS011;18200;48.726;8.892;2023-11-19T03:42:42;0.82;;;0.80;;
31594;SDS011;18200;48.726;8.892;2023-11-19T03:46:44;13.35;;;12.25;;
31594;SDS011;18200;48.726;8.892;2023-11-19T03:50:44;0.35;;;0.35;;
31594;SDS011;18200;48.726;8.892;2023-11-19T03:54:45;0.75;;;0.28;;
31594;SDS011;18200;48.726;8.892;2023-11-19T03:58:45;0.85;;;0.40;;
31594;SDS011;18200;48.726;8.892;2023-11-19T04:02:46;0.40;;;0.40;;
31594;SDS011;18200;48.726;8.892;2023-11-19T04:06:47;0.85;;;0.10;;
31594;SDS011;18200;48.726;8.892;2023-11-19T04:10:47;0.25;;;0.13;;
31594;SDS011;18200;48.726;8.892;2023-11-19T04:14:48;0.50;;;0.43;;
31594;SDS011;18200;48.726;8.892;2023-11-19T04:18:48;0.10;;;0.10;;
31594;SDS011;18200;48.726;8.892;2023-11-19T04:22:49;0.40;;;0.10;;
31594;SDS011;18200;48.726;8.892;2023-11-19T04:26:51;1.15;;;0.20;;
31594;SDS011;18200;48.726;8.892;2023-11-19T04:30:52;0.10;;;0.10;;
31594;SDS011;18200;48.726;8.892;2023-11-19T04:34:53;0.80;;;0.30;;
31594;SDS011;18200;48.726;8.892;2023-11-19T04:38:53;0.15;;;0.10;;
31594;SDS011;18200;48.726;8.892;2023-11-19T04:42:53;0.68;;;0.40;;
31594;SDS011;18200;48.726;8.892;2023-11-19T04:46:54;3.15;;;0.20;;
31594;SDS011;18200;48.726;8.892;2023-11-19T04:50:54;0.40;;;0.20;;
31594;SDS011;18200;48.726;8.892;2023-11-19T04:54:55;1.55;;;0.40;;
31594;SDS011;18200;48.726;8.892;2023-11-19T04:58:55;0.95;;;0.10;;
31594;SDS011;18200;48.726;8.892;2023-11-19T05:02:55;0.40;;;0.20;;
31594;SDS011;18200;48.726;8.892;2023-11-19T05:06:56;0.15;;;0.15;;
31594;SDS011;18200;48.726;8.892;2023-11-19T05:10:56;0.10;;;0.10;;
31594;SDS011;18200;48.726;8.892;2023-11-19T05:14:57;0.20;;;0.10;;
31594;SDS011;18200;48.726;8.892;2023-11-19T05:18:58;0.57;;;0.20;;
31594;SDS011;18200;48.726;8.892;2023-11-19T05:22:58;0.20;;;0.20;;
31594;SDS011;18200;48.726;8.892;2023-11-19T05:27:00;2.05;;;0.10;;
31594;SDS011;18200;48.726;8.892;2023-11-19T05:31:00;1.15;;;0.70;;
31594;SDS011;18200;48.726;8.892;2023-11-19T05:35:01;0.47;;;0.20;;
31594;SDS011;18200;48.726;8.892;2023-11-19T05:39:01;0.40;;;0.20;;
31594;SDS011;18200;48.726;8.892;2023-11-19T05:43:04;0.20;;;0.20;;
31594;SDS011;18200;48.726;8.892;2023-11-19T05:47:05;2.10;;;2.00;;
31594;SDS011;18200;48.726;8.892;2023-11-19T05:51:07;1.88;;;0.30;;
31594;SDS011;18200;48.726;8.892;2023-11-19T05:55:07;0.43;;;0.30;;
31594;SDS011;18200;48.726;8.892;2023-11-19T05:59:10;1.35;;;0.57;;
31594;SDS011;18200;48.726;8.892;2023-11-19T06:03:15;1.95;;;0.57;;
31594;SDS011;18200;48.726;8.892;2023-11-19T06:07:15;2.53;;;0.45;;
31594;SDS011;18200;48.726;8.892;2023-11-19T06:11:15;0.10;;;0.10;;
31594;SDS011;18200;48.726;8.892;2023-11-19T06:15:18;0.30;;;0.20;;
31594;SDS011;18200;48.726;8.892;2023-11-19T06:19:18;0.55;;;0.20;;
31594;SDS011;18200;48.726;8.892;2023-11-19T06:23:19;2.20;;;0.68;;
31594;SDS011;18200;48.726;8.892;2023-11-19T06:27:19;2.92;;;0.50;;
31594;SDS011;18200;48.726;8.892;2023-11-19T06:31:21;1.17;;;0.40;;
31594;SDS011;18200;48.726;8.892;2023-11-19T06:35:22;0.60;;;0.47;;
31594;SDS011;18200;48.726;8.892;2023-11-19T06:39:22;1.58;;;0.40;;
31594;SDS011;18200;48.726;8.892;2023-11-19T06:43:23;1.35;;;0.30;;
31594;SDS011;18200;48.726;8.892;2023-11-19T06:47:26;0.20;;;0.20;;
31594;SDS011;18200;48.726;8.892;2023-11-19T06:55:29;1.48;;;0.47;;
31594;SDS011;18200;48.726;8.892;2023-11-19T06:59:30;0.30;;;0.30;;
31594;SDS011;18200;48.726;8.892;2023-11-19T07:03:31;0.43;;;0.40;;
31594;SDS011;18200;48.726;8.892;2023-11-19T07:07:31;1.83;;;0.50;;
31594;SDS011;18200;48.726;8.892;2023-11-19T07:11:36;1.88;;;0.40;;
31594;SDS011;18200;48.726;8.892;2023-11-19T07:15:38;1.08;;;0.40;;
31594;SDS011;18200;48.726;8.892;2023-11-19T07:19:39;1.00;;;0.40;;
31594;SDS011;18200;48.726;8.892;2023-11-19T07:23:39;0.68;;;0.40;;
31594;SDS011;18200;48.726;8.892;2023-11-19T07:27:39;1.10;;;0.90;;
31594;SDS011;18200;48.726;8.892;2023-11-19T07:31:40;1.80;;;0.45;;
31594;SDS011;18200;48.726;8.892;2023-11-19T07:35:40;2.15;;;0.70;;
31594;SDS011;18200;48.726;8.892;2023-11-19T07:39:42;1.02;;;0.22;;
31594;SDS011;18200;48.726;8.892;2023-11-19T07:43:43;1.65;;;0.40;;
31594;SDS011;18200;48.726;8.892;2023-11-19T07:47:44;2.22;;;0.40;;
31594;SDS011;18200;48.726;8.892;2023-11-19T07:51:44;0.40;;;0.40;;
31594;SDS011;18200;48.726;8.892;2023-11-19T07:55:45;2.30;;;0.50;;
31594;SDS011;18200;48.726;8.892;2023-11-19T07:59:46;0.65;;;0.30;;
31594;SDS011;18200;48.726;8.892;2023-11-19T08:03:47;0.70;;;0.40;;
31594;SDS011;18200;48.726;8.892;2023-11-19T08:07:47;1.23;;;0.82;;
31594;SDS011;18200;48.726;8.892;2023-11-19T08:11:47;2.38;;;0.70;;
31594;SDS011;18200;48.726;8.892;2023-11-19T08:15:48;2.28;;;1.08;;
31594;SDS011;18200;48.726;8.892;2023-11-19T08:19:48;2.50;;;1.10;;
31594;SDS011;18200;48.726;8.892;2023-11-19T08:23:48;1.83;;;1.20;;
31594;SDS011;18200;48.726;8.892;2023-11-19T08:27:49;5.45;;;2.70;;
31594;SDS011;18200;48.726;8.892;2023-11-19T08:31:49;2.35;;;1.10;;
31594;SDS011;18200;48.726;8.892;2023-11-19T08:35:49;5.78;;;2.58;;
31594;SDS011;18200;48.726;8.892;2023-11-19T08:39:50;2.55;;;1.50;;
31594;SDS011;18200;48.726;8.892;2023-11-19T08:43:51;2.95;;;1.60;;
31594;SDS011;18200;48.726;8.892;2023-11-19T08:47:51;1.23;;;0.98;;
31594;SDS011;18200;48.726;8.892;2023-11-19T08:51:52;2.90;;;1.13;;
31594;SDS011;18200;48.726;8.892;2023-11-19T08:55:52;2.30;;;1.40;;
31594;SDS011;18200;48.726;8.892;2023-11-19T08:59:52;1.08;;;0.98;;
31594;SDS011;18200;48.726;8.892;2023-11-19T09:03:53;3.50;;;1.33;;
31594;SDS011;18200;48.726;8.892;2023-11-19T09:07:53;2.05;;;0.52;;
31594;SDS011;18200;48.726;8.892;2023-11-19T09:11:53;1.75;;;0.82;;
31594;SDS011;18200;48.726;8.892;2023-11-19T09:15:54;1.95;;;1.13;;
31594;SDS011;18200;48.726;8.892;2023-11-19T09:19:57;4.53;;;1.95;;
31594;SDS011;18200;48.726;8.892;2023-11-19T09:23:57;2.25;;;1.15;;
31594;SDS011;18200;48.726;8.892;2023-11-19T09:27:58;3.03;;;0.80;;
31594;SDS011;18200;48.726;8.892;2023-11-19T09:31:58;2.42;;;0.50;;
31594;SDS011;18200;48.726;8.892;2023-11-19T09:35:58;2.45;;;1.30;;
31594;SDS011;18200;48.726;8.892;2023-11-19T09:39:59;2.15;;;0.50;;
31594;SDS011;18200;48.726;8.892;2023-11-19T09:43:59;2.03;;;0.52;;
31594;SDS011;18200;48.726;8.892;2023-11-19T09:47:59;1.25;;;0.90;;
31594;SDS011;18200;48.726;8.892;2023-11-19T09:52:01;1.83;;;0.32;;
31594;SDS011;18200;48.726;8.892;2023-11-19T09:56:03;9.90;;;3.78;;
31594;SDS011;18200;48.726;8.892;2023-11-19T10:00:04;1.65;;;0.57;;
31594;SDS011;18200;48.726;8.892;2023-11-19T10:04:06;3.00;;;0.63;;
31594;SDS011;18200;48.726;8.892;2023-11-19T10:08:07;3.22;;;1.38;;
31594;SDS011;18200;48.726;8.892;2023-11-19T10:12:11;2.67;;;0.90;;
31594;SDS011;18200;48.726;8.892;2023-11-19T10:16:14;4.68;;;2.08;;
31594;SDS011;18200;48.726;8.892;2023-11-19T10:20:15;5.28;;;0.32;;
31594;SDS011;18200;48.726;8.892;2023-11-19T10:24:15;1.10;;;0.63;;
31594;SDS011;18200;48.726;8.892;2023-11-19T10:28:16;1.25;;;0.30;;
31594;SDS011;18200;48.726;8.892;2023-11-19T10:32:16;3.13;;;0.50;;
31594;SDS011;18200;48.726;8.892;2023-11-19T10:36:17;1.30;;;0.50;;
31594;SDS011;18200;48.726;8.892;2023-11-19T10:40:17;2.08;;;0.57;;
31594;SDS011;18200;48.726;8.892;2023-11-19T10:44:34;1.60;;;0.50;;
31594;SDS011;18200;48.726;8.892;2023-11-19T10:48:36;1.05;;;0.52;;
31594;SDS011;18200;48.726;8.892;2023-11-19T10:52:36;2.80;;;0.50;;
31594;SDS011;18200;48.726;8.892;2023-11-19T10:56:39;0.82;;;0.40;;
31594;SDS011;18200;48.726;8.892;2023-11-19T11:04:46;0.75;;;0.40;;
31594;SDS011;18200;48.726;8.892;2023-11-19T11:08:47;2.03;;;0.40;;
31594;SDS011;18200;48.726;8.892;2023-11-19T11:12:48;2.45;;;0.65;;
31594;SDS011;18200;48.726;8.892;2023-11-19T11:16:53;1.10;;;0.40;;
31594;SDS011;18200;48.726;8.892;2023-11-19T11:20:55;3.50;;;1.10;;
31594;SDS011;18200;48.726;8.892;2023-11-19T11:25:11;2.58;;;0.50;;
31594;SDS011;18200;48.726;8.892;2023-11-19T11:30:04;2.80;;;0.60;;
31594;SDS011;18200;48.726;8.892;2023-11-19T11:38:36;2.13;;;0.63;;
31594;SDS011;18200;48.726;8.892;2023-11-19T11:42:40;2.42;;;0.60;;
31594;SDS011;18200;48.726;8.892;2023-11-19T11:50:52;3.70;;;0.43;;
31594;SDS011;18200;48.726;8.892;2023-11-19T11:54:54;3.05;;;1.60;;
31594;SDS011;18200;48.726;8.892;2023-11-19T11:59:08;2.90;;;1.73;;
31594;SDS011;18200;48.726;8.892;2023-11-19T12:03:21;4.25;;;1.40;;
31594;SDS011;18200;48.726;8.892;2023-11-19T12:07:22;2.97;;;0.70;;
31594;SDS011;18200;48.726;8.892;2023-11-19T12:11:24;0.93;;;0.30;;
31594;SDS011;18200;48.726;8.892;2023-11-19T12:15:27;3.33;;;0.57;;
31594;SDS011;18200;48.726;8.892;2023-11-19T12:19:28;2.97;;;0.90;;
31594;SDS011;18200;48.726;8.892;2023-11-19T12:23:29;3.33;;;0.85;;
31594;SDS011;18200;48.726;8.892;2023-11-19T12:27:30;2.38;;;0.55;;
31594;SDS011;18200;48.726;8.892;2023-11-19T12:31:30;2.22;;;0.50;;
31594;SDS011;18200;48.726;8.892;2023-11-19T12:35:31;1.70;;;0.70;;
31594;SDS011;18200;48.726;8.892;2023-11-19T12:39:31;1.80;;;0.38;;
31594;SDS011;18200;48.726;8.892;2023-11-19T12:43:32;2.47;;;0.50;;
31594;SDS011;18200;48.726;8.892;2023-11-19T12:47:34;2.08;;;0.60;;
31594;SDS011;18200;48.726;8.892;2023-11-19T12:51:34;1.08;;;0.60;;
31594;SDS011;18200;48.726;8.892;2023-11-19T12:55:35;1.85;;;0.40;;
31594;SDS011;18200;48.726;8.892;2023-11-19T12:59:35;4.35;;;0.88;;
31594;SDS011;18200;48.726;8.892;2023-11-19T13:03:36;0.98;;;0.47;;
31594;SDS011;18200;48.726;8.892;2023-11-19T13:07:38;1.75;;;0.60;;
31594;SDS011;18200;48.726;8.892;2023-11-19T13:11:39;3.33;;;1.25;;
31594;SDS011;18200;48.726;8.892;2023-11-19T13:15:40;3.67;;;1.85;;
31594;SDS011;18200;48.726;8.892;2023-11-19T13:19:41;1.70;;;0.43;;
31594;SDS011;18200;48.726;8.892;2023-11-19T13:23:41;1.52;;;0.68;;
31594;SDS011;18200;48.726;8.892;2023-11-19T13:27:42;1.85;;;0.60;;
31594;SDS011;18200;48.726;8.892;2023-11-19T13:31:46;3.45;;;0.47;;
31594;SDS011;18200;48.726;8.892;2023-11-19T13:35:46;2.78;;;0.65;;
31594;SDS011;18200;48.726;8.892;2023-11-19T13:39:46;3.05;;;0.65;;
31594;SDS011;18200;48.726;8.892;2023-11-19T13:43:47;3.00;;;0.50;;
31594;SDS011;18200;48.726;8.892;2023-11-19T13:47:47;0.43;;;0.38;;
31594;SDS011;18200;48.726;8.892;2023-11-19T13:51:48;1.33;;;0.70;;
31594;SDS011;18200;48.726;8.892;2023-11-19T13:55:48;1.85;;;0.70;;
31594;SDS011;18200;48.726;8.892;2023-11-19T13:59:48;5.10;;;0.70;;
31594;SDS011;18200;48.726;8.892;2023-11-19T14:03:49;2.58;;;0.50;;
31594;SDS011;18200;48.726;8.892;2023-11-19T14:07:49;2.13;;;0.60;;
31594;SDS011;18200;48.726;8.892;2023-11-19T14:11:51;1.70;;;1.08;;
31594;SDS011;18200;48.726;8.892;2023-11-19T14:15:52;1.40;;;0.50;;
31594;SDS011;18200;48.726;8.892;2023-11-19T14:19:52;3.35;;;0.95;;
31594;SDS011;18200;48.726;8.892;2023-11-19T14:23:53;2.13;;;0.65;;
31594;SDS011;18200;48.726;8.892;2023-11-19T14:27:53;6.32;;;0.90;;
31594;SDS011;18200;48.726;8.892;2023-11-19T14:31:53;4.05;;;0.98;;
31594;SDS011;18200;48.726;8.892;2023-11-19T14:35:54;2.63;;;0.90;;
31594;SDS011;18200;48.726;8.892;2023-11-19T14:39:54;1.55;;;0.75;;
31594;SDS011;18200;48.726;8.892;2023-11-19T14:43:54;1.98;;;0.60;;
31594;SDS011;18200;48.726;8.892;2023-11-19T14:47:55;3.30;;;1.05;;
31594;SDS011;18200;48.726;8.892;2023-11-19T14:51:55;1.60;;;0.65;;
31594;SDS011;18200;48.726;8.892;2023-11-19T14:55:55;2.85;;;0.63;;
31594;SDS011;18200;48.726;8.892;2023-11-19T14:59:56;1.50;;;0.98;;
31594;SDS011;18200;48.726;8.892;2023-11-19T15:03:57;1.80;;;0.65;;
31594;SDS011;18200;48.726;8.892;2023-11-19T15:07:57;4.22;;;0.90;;
31594;SDS011;18200;48.726;8.892;2023-11-19T15:11:57;0.80;;;0.70;;
31594;SDS011;18200;48.726;8.892;2023-11-19T15:15:59;2.53;;;0.60;;
31594;SDS011;18200;48.726;8.892;2023-11-19T15:19:59;2.53;;;1.30;;
31594;SDS011;18200;48.726;8.892;2023-11-19T15:24:00;2.97;;;0.60;;
31594;SDS011;18200;48.726;8.892;2023-11-19T15:32:05;2.00;;;1.00;;
31594;SDS011;18200;48.726;8.892;2023-11-19T15:36:07;13.82;;;5.45;;
31594;SDS011;18200;48.726;8.892;2023-11-19T15:40:08;2.95;;;1.30;;
31594;SDS011;18200;48.726;8.892;2023-11-19T15:44:09;2.88;;;0.80;;
31594;SDS011;18200;48.726;8.892;2023-11-19T15:48:09;6.82;;;1.00;;
31594;SDS011;18200;48.726;8.892;2023-11-19T15:52:13;2.70;;;1.13;;
31594;SDS011;18200;48.726;8.892;2023-11-19T15:56:15;3.30;;;0.80;;
31594;SDS011;18200;48.726;8.892;2023-11-19T16:00:15;4.00;;;1.05;;
31594;SDS011;18200;48.726;8.892;2023-11-19T16:04:17;3.28;;;1.00;;
31594;SDS011;18200;48.726;8.892;2023-11-19T16:08:17;1.10;;;0.68;;
31594;SDS011;18200;48.726;8.892;2023-11-19T16:12:17;1.08;;;0.70;;
31594;SDS011;18200;48.726;8.892;2023-11-19T16:16:18;2.92;;;1.00;;
31594;SDS011;18200;48.726;8.892;2023-11-19T16:20:18;4.13;;;1.50;;
31594;SDS011;18200;48.726;8.892;2023-11-19T16:24:18;5.47;;;1.63;;
31594;SDS011;18200;48.726;8.892;2023-11-19T16:28:19;3.22;;;1.90;;
31594;SDS011;18200;48.726;8.892;2023-11-19T16:32:19;4.13;;;0.80;;
31594;SDS011;18200;48.726;8.892;2023-11-19T16:36:20;7.53;;;4.80;;
31594;SDS011;18200;48.726;8.892;2023-11-19T16:40:21;3.70;;;1.50;;
31594;SDS011;18200;48.726;8.892;2023-11-19T16:44:21;30.38;;;14.38;;
31594;SDS011;18200;48.726;8.892;2023-11-19T16:48:22;7.07;;;4.88;;
31594;SDS011;18200;48.726;8.892;2023-11-19T16:52:22;2.78;;;1.25;;
31594;SDS011;18200;48.726;8.892;2023-11-19T16:56:23;4.05;;;1.55;;
31594;SDS011;18200;48.726;8.892;2023-11-19T17:00:24;1.80;;;1.00;;
31594;SDS011;18200;48.726;8.892;2023-11-19T17:04:25;3.58;;;2.13;;
31594;SDS011;18200;48.726;8.892;2023-11-19T17:08:27;2.58;;;1.38;;
31594;SDS011;18200;48.726;8.892;2023-11-19T17:12:28;9.70;;;4.45;;
31594;SDS011;18200;48.726;8.892;2023-11-19T17:16:30;5.05;;;2.60;;
31594;SDS011;18200;48.726;8.892;2023-11-19T17:20:30;5.75;;;2.08;;
31594;SDS011;18200;48.726;8.892;2023-11-19T17:24:31;4.05;;;1.60;;
31594;SDS011;18200;48.726;8.892;2023-11-19T17:28:31;8.85;;;4.20;;
31594;SDS011;18200;48.726;8.892;2023-11-19T17:32:34;5.28;;;1.67;;
31594;SDS011;18200;48.726;8.892;2023-11-19T17:36:34;5.88;;;3.13;;
31594;SDS011;18200;48.726;8.892;2023-11-19T17:40:35;4.10;;;2.20;;
31594;SDS011;18200;48.726;8.892;2023-11-19T17:44:36;4.90;;;3.38;;
31594;SDS011;18200;48.726;8.892;2023-11-19T17:48:36;5.93;;;2.33;;
31594;SDS011;18200;48.726;8.892;2023-11-19T17:52:37;6.45;;;2.30;;
31594;SDS011;18200;48.726;8.892;2023-11-19T17:56:37;5.40;;;2.40;;
31594;SDS011;18200;48.726;8.892;2023-11-19T18:00:39;4.75;;;2.22;;
31594;SDS011;18200;48.726;8.892;2023-11-19T18:04:39;7.22;;;3.35;;
31594;SDS011;18200;48.726;8.892;2023-11-19T18:08:40;9.27;;;4.20;;
31594;SDS011;18200;48.726;8.892;2023-11-19T18:12:40;5.15;;;1.88;;
31594;SDS011;18200;48.726;8.892;2023-11-19T18:16:41;18.13;;;9.13;;
31594;SDS011;18200;48.726;8.892;2023-11-19T18:20:43;8.60;;;3.05;;
31594;SDS011;18200;48.726;8.892;2023-11-19T18:24:44;4.82;;;1.45;;
31594;SDS011;18200;48.726;8.892;2023-11-19T18:28:44;3.63;;;1.55;;
31594;SDS011;18200;48.726;8.892;2023-11-19T18:32:46;6.05;;;2.90;;
31594;SDS011;18200;48.726;8.892;2023-11-19T18:36:47;12.20;;;6.95;;
31594;SDS011;18200;48.726;8.892;2023-11-19T18:40:48;9.35;;;4.95;;
31594;SDS011;18200;48.726;8.892;2023-11-19T18:44:48;7.45;;;2.92;;
31594;SDS011;18200;48.726;8.892;2023-11-19T18:48:48;8.02;;;2.63;;
31594;SDS011;18200;48.726;8.892;2023-11-19T18:52:49;5.68;;;2.50;;
31594;SDS011;18200;48.726;8.892;2023-11-19T18:56:49;7.45;;;3.20;;
31594;SDS011;18200;48.726;8.892;2023-11-19T19:00:50;7.78;;;1.80;;
31594;SDS011;18200;48.726;8.892;2023-11-19T19:04:50;5.13;;;1.60;;
31594;SDS011;18200;48.726;8.892;2023-11-19T19:08:51;3.70;;;1.25;;
31594;SDS011;18200;48.726;8.892;2023-11-19T19:12:51;8.55;;;1.60;;
31594;SDS011;18200;48.726;8.892;2023-11-19T19:16:54;3.92;;;1.50;;
31594;SDS011;18200;48.726;8.892;2023-11-19T19:20:56;4.18;;;1.50;;
31594;SDS011;18200;48.726;8.892;2023-11-19T19:24:56;2.83;;;1.42;;
31594;SDS011;18200;48.726;8.892;2023-11-19T19:28:57;5.53;;;1.60;;
31594;SDS011;18200;48.726;8.892;2023-11-19T19:32:57;6.57;;;1.02;;
31594;SDS011;18200;48.726;8.892;2023-11-19T19:36:57;4.35;;;1.38;;
31594;SDS011;18200;48.726;8.892;2023-11-19T19:40:58;7.13;;;1.38;;
31594;SDS011;18200;48.726;8.892;2023-11-19T19:45:04;3.22;;;1.23;;
31594;SDS011;18200;48.726;8.892;2023-11-19T19:49:05;3.65;;;1.10;;
31594;SDS011;18200;48.726;8.892;2023-11-19T19:53:08;3.47;;;1.55;;
31594;SDS011;18200;48.726;8.892;2023-11-19T19:57:10;5.57;;;1.15;;
31594;SDS011;18200;48.726;8.892;2023-11-19T20:01:11;4.20;;;1.52;;
31594;SDS011;18200;48.726;8.892;2023-11-19T20:05:12;6.60;;;1.60;;
31594;SDS011;18200;48.726;8.892;2023-11-19T20:09:12;5.78;;;1.70;;
31594;SDS011;18200;48.726;8.892;2023-11-19T20:13:13;5.05;;;1.70;;
31594;SDS011;18200;48.726;8.892;2023-11-19T20:17:14;4.50;;;1.63;;
31594;SDS011;18200;48.726;8.892;2023-11-19T20:21:15;8.07;;;1.63;;
31594;SDS011;18200;48.726;8.892;2023-11-19T20:25:15;4.45;;;1.63;;
31594;SDS011;18200;48.726;8.892;2023-11-19T20:29:17;5.75;;;1.30;;
31594;SDS011;18200;48.726;8.892;2023-11-19T20:33:17;5.72;;;1.50;;
31594;SDS011;18200;48.726;8.892;2023-11-19T20:37:17;6.00;;;1.60;;
31594;SDS011;18200;48.726;8.892;2023-11-19T20:41:19;6.72;;;1.42;;
31594;SDS011;18200;48.726;8.892;2023-11-19T20:45:19;7.07;;;2.03;;
31594;SDS011;18200;48.726;8.892;2023-11-19T20:49:22;7.22;;;1.45;;
31594;SDS011;18200;48.726;8.892;2023-11-19T20:53:22;8.35;;;1.98;;
31594;SDS011;18200;48.726;8.892;2023-11-19T20:57:22;11.52;;;2.20;;
31594;SDS011;18200;48.726;8.892;2023-11-19T21:01:23;13.07;;;3.47;;
31594;SDS011;18200;48.726;8.892;2023-11-19T21:05:23;9.40;;;2.40;;
31594;SDS011;18200;48.726;8.892;2023-11-19T21:09:23;13.70;;;3.25;;
31594;SDS011;18200;48.726;8.892;2023-11-19T21:13:24;14.32;;;2.65;;
31594;SDS011;18200;48.726;8.892;2023-11-19T21:17:24;14.73;;;2.50;;
31594;SDS011;18200;48.726;8.892;2023-11-19T21:21:25;18.83;;;3.17;;
31594;SDS011;18200;48.726;8.892;2023-11-19T21:25:25;17.33;;;3.45;;
31594;SDS011;18200;48.726;8.892;2023-11-19T21:29:26;19.88;;;2.65;;
31594;SDS011;18200;48.726;8.892;2023-11-19T21:33:26;12.55;;;2.63;;
31594;SDS011;18200;48.726;8.892;2023-11-19T21:37:27;23.40;;;3.72;;
31594;SDS011;18200;48.726;8.892;2023-11-19T21:41:28;17.88;;;2.95;;
31594;SDS011;18200;48.726;8.892;2023-11-19T21:45:28;17.88;;;2.65;;
31594;SDS011;18200;48.726;8.892;2023-11-19T21:49:28;12.32;;;2.80;;
31594;SDS011;18200;48.726;8.892;2023-11-19T21:53:29;19.55;;;3.10;;
31594;SDS011;18200;48.726;8.892;2023-11-19T21:57:29;14.90;;;2.72;;
31594;SDS011;18200;48.726;8.892;2023-11-19T22:01:30;12.02;;;1.92;;
31594;SDS011;18200;48.726;8.892;2023-11-19T22:05:30;17.92;;;2.67;;
31594;SDS011;18200;48.726;8.892;2023-11-19T22:09:30;12.80;;;2.10;;
31594;SDS011;18200;48.726;8.892;2023-11-19T22:13:31;12.27;;;2.40;;
31594;SDS011;18200;48.726;8.892;2023-11-19T22:17:32;11.27;;;2.45;;
31594;SDS011;18200;48.726;8.892;2023-11-19T22:21:33;20.10;;;3.10;;
31594;SDS011;18200;48.726;8.892;2023-11-19T22:25:33;17.45;;;3.03;;
31594;SDS011;18200;48.726;8.892;2023-11-19T22:29:34;16.33;;;2.60;;
31594;SDS011;18200;48.726;8.892;2023-11-19T22:33:34;14.02;;;2.10;;
31594;SDS011;18200;48.726;8.892;2023-11-19T22:37:35;16.38;;;3.10;;
31594;SDS011;18200;48.726;8.892;2023-11-19T22:41:35;18.88;;;2.47;;
31594;SDS011;18200;48.726;8.892;2023-11-19T22:45:35;14.95;;;2.90;;
31594;SDS011;18200;48.726;8.892;2023-11-19T22:49:36;13.75;;;2.30;;
31594;SDS011;18200;48.726;8.892;2023-11-19T22:53:36;20.33;;;3.00;;
31594;SDS011;18200;48.726;8.892;2023-11-19T22:57:36;21.20;;;3.22;;
31594;SDS011;18200;48.726;8.892;2023-11-19T23:01:37;23.70;;;3.83;;
31594;SDS011;18200;48.726;8.892;2023-11-19T23:05:37;18.15;;;2.75;;
31594;SDS011;18200;48.726;8.892;2023-11-19T23:09:37;19.45;;;2.67;;
31594;SDS011;18200;48.726;8.892;2023-11-19T23:13:41;19.17;;;2.83;;
31594;SDS011;18200;48.726;8.892;2023-11-19T23:17:41;15.43;;;3.10;;
31594;SDS011;18200;48.726;8.892;2023-11-19T23:21:42;13.90;;;2.53;;
31594;SDS011;18200;48.726;8.892;2023-11-19T23:25:44;18.20;;;2.83;;
31594;SDS011;18200;48.726;8.892;2023-11-19T23:29:45;13.60;;;2.45;;
31594;SDS011;18200;48.726;8.892;2023-11-19T23:33:45;21.35;;;2.75;;
31594;SDS011;18200;48.726;8.892;2023-11-19T23:37:45;17.48;;;2.70;;
31594;SDS011;18200;48.726;8.892;2023-11-19T23:41:46;21.83;;;3.13;;
31594;SDS011;18200;48.726;8.892;2023-11-19T23:45:47;21.02;;;3.10;;
31594;SDS011;18200;48.726;8.892;2023-11-19T23:49:47;21.50;;;3.08;;
31594;SDS011;18200;48.726;8.892;2023-11-19T23:53:48;24.92;;;3.30;;
31594;SDS011;18200;48.726;8.892;2023-11-19T23:57:48;21.40;;;2.70;;
